createdAt,value
2023-03-01T00:00:15.987Z,19.20
2023-03-01T00:02:47.724Z,23.90
2023-03-01T00:05:16.314Z,20.30
2023-03-01T00:07:51.505Z,23.00
2023-03-01T00:10:27.794Z,21.20
2023-03-01T00:12:58.735Z,25.10
2023-03-01T00:15:29.196Z,23.80
2023-03-01T00:18:06.441Z,23.90
2023-03-01T00:20:38.840Z,19.90
2023-03-01T00:23:13.904Z,23.90
2023-03-01T00:25:43.996Z,19.30
2023-03-01T00:28:19.173Z,20.60
2023-03-01T00:30:56.581Z,19.90
2023-03-01T00:33:27.186Z,18.90
2023-03-01T00:38:29.023Z,18.70
2023-03-01T00:41:09.905Z,18.20
2023-03-01T00:43:44.873Z,21.00
2023-03-01T00:46:18.697Z,20.60
2023-03-01T00:48:51.893Z,22.20
2023-03-01T00:51:28.610Z,25.90
2023-03-01T00:54:00.666Z,20.40
2023-03-01T00:56:32.733Z,20.30
2023-03-01T00:59:11.404Z,21.80
2023-03-01T01:01:42.950Z,24.20
2023-03-01T01:04:14.608Z,23.20
2023-03-01T01:06:45.803Z,21.50
2023-03-01T01:09:21.040Z,22.60
2023-03-01T01:11:52.050Z,23.90
2023-03-01T01:14:21.592Z,23.10
2023-03-01T01:16:52.891Z,20.30
2023-03-01T01:19:22.391Z,26.50
2023-03-01T01:21:52.074Z,23.70
2023-03-01T01:24:22.091Z,27.40
2023-03-01T01:26:51.476Z,21.70
2023-03-01T01:29:21.414Z,27.90
2023-03-01T01:31:50.706Z,22.50
2023-03-01T01:34:21.849Z,19.30
2023-03-01T01:36:55.779Z,23.60
2023-03-01T01:39:32.859Z,22.70
2023-03-01T01:42:02.489Z,25.50
2023-03-01T01:44:35.782Z,22.00
2023-03-01T01:47:23.437Z,17.70
2023-03-01T01:49:54.608Z,20.30
2023-03-01T01:52:28.040Z,25.40
2023-03-01T01:55:25.496Z,26.00
2023-03-01T01:57:57.842Z,22.70
2023-03-01T02:00:39.605Z,27.20
2023-03-01T02:03:13.266Z,21.10
2023-03-01T02:06:09.440Z,27.40
2023-03-01T02:08:40.125Z,22.20
2023-03-01T02:11:09.521Z,23.00
2023-03-01T02:13:46.453Z,25.90
2023-03-01T02:16:19.733Z,26.10
2023-03-01T02:18:50.903Z,20.20
2023-03-01T02:21:35.153Z,24.60
2023-03-01T02:24:37.081Z,27.30
2023-03-01T02:27:07.239Z,19.20
2023-03-01T02:29:39.667Z,22.90
2023-03-01T02:32:08.978Z,21.00
2023-03-01T02:34:38.062Z,24.60
2023-03-01T02:37:13.840Z,27.10
2023-03-01T02:39:49.439Z,18.30
2023-03-01T02:42:28.795Z,18.60
2023-03-01T02:45:02.632Z,22.50
2023-03-01T02:47:31.384Z,25.80
2023-03-01T02:50:00.841Z,23.70
2023-03-01T02:52:41.091Z,24.70
2023-03-01T02:55:23.187Z,18.50
2023-03-01T02:57:55.896Z,20.20
2023-03-01T03:01:20.983Z,22.40
2023-03-01T03:03:51.330Z,26.00
2023-03-01T03:06:20.845Z,23.20
2023-03-01T03:08:49.341Z,21.00
2023-03-01T03:11:19.076Z,21.60
2023-03-01T03:13:49.434Z,22.90
2023-03-01T03:16:18.403Z,30.50
2023-03-01T03:18:55.949Z,27.00
2023-03-01T03:21:28.697Z,20.90
2023-03-01T03:23:59.336Z,25.50
2023-03-01T03:26:31.183Z,24.70
2023-03-01T03:29:07.217Z,25.20
2023-03-01T03:31:39.554Z,22.90
2023-03-01T03:34:07.970Z,26.70
2023-03-01T03:36:36.756Z,30.60
2023-03-01T03:39:06.277Z,21.90
2023-03-01T03:41:38.312Z,28.60
2023-03-01T03:44:06.873Z,26.10
2023-03-01T03:46:40.847Z,25.40
2023-03-01T03:49:11.112Z,25.70
2023-03-01T03:51:39.633Z,23.80
2023-03-01T03:54:08.029Z,25.90
2023-03-01T03:56:43.038Z,21.50
2023-03-01T03:59:17.479Z,31.50
2023-03-01T04:01:46.439Z,26.60
2023-03-01T04:04:19.218Z,29.10
2023-03-01T04:06:49.694Z,24.00
2023-03-01T04:09:33.254Z,26.90
2023-03-01T04:12:01.647Z,23.60
2023-03-01T04:14:35.506Z,28.00
2023-03-01T04:17:14.764Z,24.10
2023-03-01T04:19:49.848Z,22.90
2023-03-01T04:24:50.246Z,24.20
2023-03-01T04:27:19.600Z,27.40
2023-03-01T04:29:47.946Z,31.20
2023-03-01T04:32:18.992Z,23.60
2023-03-01T04:34:47.656Z,34.00
2023-03-01T04:37:27.405Z,26.50
2023-03-01T04:39:56.779Z,25.70
2023-03-01T04:42:25.333Z,25.70
2023-03-01T04:44:54.615Z,27.20
2023-03-01T04:47:39.562Z,22.50
2023-03-01T04:50:12.458Z,24.40
2023-03-01T04:52:41.319Z,25.60
2023-03-01T04:55:11.772Z,22.90
2023-03-01T04:57:46.873Z,29.40
2023-03-01T05:00:25.747Z,25.90
2023-03-01T05:03:02.296Z,30.30
2023-03-01T05:05:53.969Z,27.70
2023-03-01T05:08:44.157Z,22.90
2023-03-01T05:11:22.049Z,33.20
2023-03-01T05:13:56.846Z,27.00
2023-03-01T05:16:25.269Z,23.70
2023-03-01T05:18:56.831Z,25.90
2023-03-01T05:21:28.739Z,25.80
2023-03-01T05:23:59.729Z,23.60
2023-03-01T05:26:45.924Z,33.10
2023-03-01T05:29:15.146Z,29.80
2023-03-01T05:31:45.250Z,28.60
2023-03-01T05:34:14.034Z,30.10
2023-03-01T05:36:44.372Z,23.10
2023-03-01T05:39:19.355Z,26.30
2023-03-01T05:42:01.615Z,28.70
2023-03-01T05:44:31.369Z,27.40
2023-03-01T05:47:03.351Z,30.30
2023-03-01T05:49:38.330Z,27.90
2023-03-01T05:52:09.193Z,25.80
2023-03-01T05:54:40.144Z,28.30
2023-03-01T05:57:13.353Z,28.70
2023-03-01T05:59:43.154Z,30.00
2023-03-01T06:02:12.007Z,31.00
2023-03-01T06:04:42.760Z,29.50
2023-03-01T06:07:13.599Z,23.10
2023-03-01T06:09:50.724Z,27.00
2023-03-01T06:12:23.288Z,24.80
2023-03-01T06:15:01.938Z,28.90
2023-03-01T06:20:31.331Z,25.90
2023-03-01T06:23:15.126Z,25.20
2023-03-01T06:25:52.874Z,25.40
2023-03-01T06:28:31.030Z,32.90
2023-03-01T06:34:00.796Z,21.50
2023-03-01T06:35:25.351Z,25.50
2023-03-01T06:41:52.876Z,26.00
2023-03-01T06:44:49.113Z,27.20
2023-03-01T06:51:03.559Z,28.40
2023-03-01T06:53:37.800Z,20.80
2023-03-01T06:56:13.199Z,24.10
2023-03-01T06:58:49.913Z,23.50
2023-03-01T07:01:18.597Z,22.60
2023-03-01T07:04:03.001Z,27.00
2023-03-01T07:06:37.761Z,26.50
2023-03-01T07:09:11.646Z,24.50
2023-03-01T07:12:14.084Z,25.00
2023-03-01T07:15:16.411Z,24.10
2023-03-01T07:17:48.785Z,21.30
2023-03-01T07:20:20.187Z,28.10
2023-03-01T07:22:49.470Z,18.80
2023-03-01T07:25:18.022Z,24.40
2023-03-01T07:27:54.793Z,26.60
2023-03-01T07:30:27.258Z,26.00
2023-03-01T07:33:01.295Z,25.20
2023-03-01T07:35:31.422Z,22.40
2023-03-01T07:38:06.638Z,24.90
2023-03-01T07:40:36.339Z,21.30
2023-03-01T07:43:15.272Z,30.10
2023-03-01T07:46:01.481Z,20.20
2023-03-01T07:48:32.690Z,22.30
2023-03-01T07:51:09.777Z,24.30
2023-03-01T07:53:39.091Z,22.90
2023-03-01T07:56:10.088Z,20.40
2023-03-01T07:58:42.909Z,25.20
2023-03-01T08:01:15.713Z,24.10
2023-03-01T08:04:10.521Z,24.60
2023-03-01T08:06:43.105Z,21.20
2023-03-01T08:09:13.199Z,17.50
2023-03-01T08:11:48.939Z,23.00
2023-03-01T08:14:45.905Z,21.50
2023-03-01T08:17:18.934Z,20.50
2023-03-01T08:19:48.948Z,25.30
2023-03-01T08:22:19.445Z,24.40
2023-03-01T08:24:48.810Z,17.90
2023-03-01T08:27:18.173Z,21.10
2023-03-01T08:29:46.826Z,15.10
2023-03-01T08:32:17.612Z,19.30
2023-03-01T08:34:53.538Z,16.20
2023-03-01T08:37:22.760Z,21.30
2023-03-01T08:39:53.300Z,17.30
2023-03-01T08:42:21.815Z,17.60
2023-03-01T08:44:50.410Z,22.50
2023-03-01T08:47:21.355Z,13.90
2023-03-01T08:49:52.372Z,20.50
2023-03-01T08:52:27.171Z,17.10
2023-03-01T08:54:58.001Z,21.40
2023-03-01T08:57:27.446Z,17.70
2023-03-01T08:59:59.298Z,12.50
2023-03-01T09:02:29.987Z,22.40
2023-03-01T09:04:58.416Z,19.80
2023-03-01T09:07:31.723Z,15.90
2023-03-01T09:10:00.688Z,17.60
2023-03-01T09:12:29.914Z,22.20
2023-03-01T09:14:58.742Z,15.80
2023-03-01T09:17:27.496Z,14.30
2023-03-01T09:19:58.825Z,14.90
2023-03-01T09:22:32.254Z,16.60
2023-03-01T09:25:08.992Z,18.70
2023-03-01T09:27:43.719Z,17.00
2023-03-01T09:30:16.449Z,16.40
2023-03-01T09:32:56.563Z,19.70
2023-03-01T09:35:25.992Z,18.10
2023-03-01T09:37:54.948Z,16.10
2023-03-01T09:40:28.497Z,17.40
2023-03-01T09:43:05.108Z,16.40
2023-03-01T09:45:42.018Z,16.50
2023-03-01T09:48:25.660Z,14.90
2023-03-01T09:50:59.348Z,17.50
2023-03-01T09:53:36.316Z,14.90
2023-03-01T09:56:26.318Z,17.20
2023-03-01T09:59:13.110Z,18.30
2023-03-01T10:01:59.925Z,14.80
2023-03-01T10:04:50.419Z,20.00
2023-03-01T10:07:35.705Z,17.70
2023-03-01T10:10:08.589Z,13.70
2023-03-01T10:12:43.918Z,14.40
2023-03-01T10:15:20.713Z,16.00
2023-03-01T10:18:11.035Z,15.00
2023-03-01T10:21:21.360Z,14.40
2023-03-01T10:23:56.615Z,14.70
2023-03-01T10:26:34.544Z,19.00
2023-03-01T10:29:12.246Z,13.90
2023-03-01T10:31:57.967Z,20.20
2023-03-01T10:34:31.828Z,18.20
2023-03-01T10:42:26.708Z,14.90
2023-03-01T10:45:32.028Z,13.90
2023-03-01T10:48:18.206Z,15.50
2023-03-01T10:51:26.643Z,14.20
2023-03-01T10:53:58.964Z,17.50
2023-03-01T10:56:28.817Z,13.50
2023-03-01T10:59:03.595Z,17.20
2023-03-01T11:01:36.604Z,11.50
2023-03-01T11:05:09.738Z,20.70
2023-03-01T11:07:57.041Z,14.30
2023-03-01T11:10:33.832Z,14.70
2023-03-01T11:13:21.077Z,16.40
2023-03-01T11:16:07.381Z,12.70
2023-03-01T11:18:48.154Z,13.80
2023-03-01T11:21:21.151Z,17.20
2023-03-01T11:23:49.843Z,13.80
2023-03-01T11:26:25.260Z,15.80
2023-03-01T11:29:01.191Z,14.00
2023-03-01T11:31:52.342Z,14.30
2023-03-01T11:34:40.993Z,11.20
2023-03-01T11:37:36.312Z,12.00
2023-03-01T11:40:24.879Z,18.60
2023-03-01T11:43:15.110Z,19.50
2023-03-01T11:45:59.816Z,18.50
2023-03-01T11:48:48.772Z,13.20
2023-03-01T11:51:33.882Z,13.90
2023-03-01T11:54:08.112Z,15.00
2023-03-01T11:56:41.073Z,12.90
2023-03-01T11:59:22.603Z,14.10
2023-03-01T12:02:11.497Z,12.40
2023-03-01T12:04:44.990Z,13.60
2023-03-01T12:07:51.592Z,14.00
2023-03-01T12:10:53.021Z,23.50
2023-03-01T12:14:22.600Z,11.40
2023-03-01T12:17:10.298Z,11.80
2023-03-01T12:19:59.476Z,13.10
2023-03-01T12:22:47.448Z,16.00
2023-03-01T12:25:23.365Z,17.70
2023-03-01T12:28:35.113Z,20.60
2023-03-01T12:31:52.698Z,8.70
2023-03-01T12:37:59.505Z,12.20
2023-03-01T12:47:48.927Z,11.10
2023-03-01T12:50:49.771Z,15.30
2023-03-01T12:53:42.396Z,12.50
2023-03-01T12:56:37.013Z,13.70
2023-03-01T12:59:18.470Z,15.10
2023-03-01T13:02:15.052Z,23.00
2023-03-01T13:04:56.064Z,15.20
2023-03-01T13:07:45.319Z,18.90
2023-03-01T13:10:21.191Z,18.70
2023-03-01T13:12:59.091Z,19.80
2023-03-01T13:15:35.586Z,14.40
2023-03-01T13:18:32.831Z,17.90
2023-03-01T13:21:03.759Z,19.50
2023-03-01T13:23:36.766Z,21.00
2023-03-01T13:26:21.703Z,16.80
2023-03-01T13:28:53.203Z,17.00
2023-03-01T13:31:23.846Z,17.20
2023-03-01T13:33:54.036Z,16.30
2023-03-01T13:36:49.379Z,13.70
2023-03-01T13:39:34.508Z,27.30
2023-03-01T13:42:26.457Z,17.50
2023-03-01T13:44:58.774Z,18.50
2023-03-01T13:47:32.920Z,17.30
2023-03-01T13:50:16.386Z,14.60
2023-03-01T13:53:04.626Z,14.00
2023-03-01T13:55:55.740Z,20.70
2023-03-01T13:58:30.935Z,15.40
2023-03-01T14:01:11.528Z,14.20
2023-03-01T14:03:44.869Z,11.90
2023-03-01T14:06:23.391Z,8.80
2023-03-01T14:09:29.409Z,9.20
2023-03-01T14:12:21.760Z,11.20
2023-03-01T14:15:05.482Z,14.00
2023-03-01T14:18:22.525Z,11.10
2023-03-01T14:21:01.491Z,12.50
2023-03-01T14:27:45.079Z,11.40
2023-03-01T14:30:28.127Z,8.50
2023-03-01T14:33:02.803Z,7.90
2023-03-01T14:35:46.081Z,7.60
2023-03-01T14:38:40.090Z,10.60
2023-03-01T14:41:25.502Z,8.30
2023-03-01T14:44:08.141Z,10.10
2023-03-01T14:46:43.451Z,7.10
2023-03-01T14:49:25.950Z,8.20
2023-03-01T14:52:24.735Z,12.50
2023-03-01T14:54:55.992Z,10.20
2023-03-01T14:57:31.869Z,9.10
2023-03-01T15:00:07.536Z,9.50
2023-03-01T15:02:47.247Z,10.30
2023-03-01T15:05:17.040Z,10.00
2023-03-01T15:07:50.207Z,8.00
2023-03-01T15:10:28.085Z,12.50
2023-03-01T15:12:57.543Z,25.70
2023-03-01T15:15:34.689Z,9.30
2023-03-01T15:18:18.326Z,10.50
2023-03-01T15:20:48.279Z,8.80
2023-03-01T15:23:25.670Z,13.50
2023-03-01T15:25:58.654Z,9.60
2023-03-01T15:28:31.664Z,15.90
2023-03-01T15:31:23.652Z,15.40
2023-03-01T15:33:54.114Z,12.30
2023-03-01T15:36:46.106Z,13.50
2023-03-01T15:39:34.393Z,15.40
2023-03-01T15:42:08.957Z,15.20
2023-03-01T15:44:44.494Z,14.50
2023-03-01T15:47:29.038Z,12.00
2023-03-01T15:50:02.764Z,15.00
2023-03-01T15:52:38.653Z,11.90
2023-03-01T15:55:23.023Z,19.30
2023-03-01T15:58:04.441Z,13.50
2023-03-01T16:00:59.471Z,12.60
2023-03-01T16:03:44.377Z,12.10
2023-03-01T16:06:48.726Z,9.60
2023-03-01T16:09:31.862Z,9.70
2023-03-01T16:12:07.426Z,18.20
2023-03-01T16:14:39.594Z,11.70
2023-03-01T16:17:12.643Z,11.80
2023-03-01T16:19:42.650Z,10.50
2023-03-01T16:22:11.626Z,15.70
2023-03-01T16:24:43.968Z,17.10
2023-03-01T16:27:17.949Z,14.70
2023-03-01T16:29:53.710Z,10.10
2023-03-01T16:32:25.665Z,12.30
2023-03-01T16:35:07.980Z,15.50
2023-03-01T16:37:45.218Z,19.10
2023-03-01T16:40:24.154Z,14.80
2023-03-01T16:43:01.810Z,15.10
2023-03-01T16:45:43.886Z,18.10
2023-03-01T16:48:17.421Z,18.10
2023-03-01T16:51:01.242Z,17.40
2023-03-01T16:53:53.261Z,21.20
2023-03-01T16:56:27.903Z,18.00
2023-03-01T16:58:56.652Z,21.20
2023-03-01T17:01:34.515Z,21.90
2023-03-01T17:04:10.338Z,13.90
2023-03-01T17:06:44.823Z,16.40
2023-03-01T17:09:24.744Z,20.60
2023-03-01T17:11:55.432Z,14.30
2023-03-01T17:14:28.501Z,11.00
2023-03-01T17:17:11.713Z,11.50
2023-03-01T17:19:48.067Z,17.30
2023-03-01T17:22:19.265Z,16.70
2023-03-01T17:24:50.185Z,17.40
2023-03-01T17:27:23.958Z,31.60
2023-03-01T17:30:12.406Z,19.00
2023-03-01T17:32:47.374Z,19.50
2023-03-01T17:35:27.278Z,24.50
2023-03-01T17:38:01.397Z,13.70
2023-03-01T17:40:33.887Z,16.00
2023-03-01T17:43:04.792Z,16.70
2023-03-01T17:45:37.662Z,14.20
2023-03-01T17:48:09.903Z,18.70
2023-03-01T17:51:01.043Z,17.40
2023-03-01T17:53:34.518Z,13.70
2023-03-01T17:56:05.842Z,12.20
2023-03-01T17:58:34.526Z,13.30
2023-03-01T18:01:18.208Z,29.60
2023-03-01T18:03:50.192Z,12.50
2023-03-01T18:06:27.406Z,16.10
2023-03-01T18:09:02.351Z,14.90
2023-03-01T18:11:36.415Z,21.60
2023-03-01T18:14:12.285Z,14.90
2023-03-01T18:16:44.607Z,17.20
2023-03-01T18:19:17.796Z,16.60
2023-03-01T18:21:53.143Z,24.30
2023-03-01T18:24:28.324Z,16.90
2023-03-01T18:26:58.013Z,16.30
2023-03-01T18:29:29.596Z,17.40
2023-03-01T18:32:00.836Z,14.80
2023-03-01T18:34:31.169Z,13.40
2023-03-01T18:37:09.626Z,14.70
2023-03-01T18:39:50.489Z,17.80
2023-03-01T18:42:23.229Z,59.10
2023-03-01T18:44:54.427Z,29.70
2023-03-01T18:47:24.497Z,26.00
2023-03-01T18:49:58.577Z,20.80
2023-03-01T18:52:36.346Z,20.60
2023-03-01T18:55:06.354Z,15.20
2023-03-01T18:57:38.926Z,22.50
2023-03-01T19:00:11.253Z,20.70
2023-03-01T19:02:42.836Z,21.90
2023-03-01T19:05:20.175Z,21.10
2023-03-01T19:07:50.056Z,21.90
2023-03-01T19:10:22.462Z,22.10
2023-03-01T19:12:55.987Z,22.40
2023-03-01T19:15:27.593Z,21.30
2023-03-01T19:18:00.283Z,17.60
2023-03-01T19:20:29.396Z,19.90
2023-03-01T19:22:58.650Z,18.40
2023-03-01T19:25:27.592Z,16.50
2023-03-01T19:27:56.243Z,24.00
2023-03-01T19:30:28.744Z,17.30
2023-03-01T19:33:04.836Z,17.90
2023-03-01T19:35:44.615Z,19.10
2023-03-01T19:38:16.809Z,13.30
2023-03-01T19:40:59.492Z,14.20
2023-03-01T19:43:52.494Z,19.30
2023-03-01T19:46:30.484Z,11.60
2023-03-01T19:49:02.940Z,18.00
2023-03-01T19:51:41.579Z,15.80
2023-03-01T19:54:22.923Z,15.90
2023-03-01T19:56:53.233Z,15.70
2023-03-01T19:59:35.235Z,21.70
2023-03-01T20:02:06.951Z,17.00
2023-03-01T20:04:41.718Z,15.00
2023-03-01T20:07:11.275Z,11.60
2023-03-01T20:10:03.144Z,20.50
2023-03-01T20:12:39.830Z,26.90
2023-03-01T20:15:19.599Z,18.10
2023-03-01T20:17:49.804Z,16.70
2023-03-01T20:20:32.179Z,16.60
2023-03-01T20:23:03.760Z,19.40
2023-03-01T20:25:36.156Z,21.00
2023-03-01T20:28:06.322Z,24.70
2023-03-01T20:30:37.863Z,19.10
2023-03-01T20:33:09.557Z,18.40
2023-03-01T20:35:43.283Z,18.70
2023-03-01T20:38:12.639Z,21.10
2023-03-01T20:40:42.670Z,21.40
2023-03-01T20:43:15.082Z,18.00
2023-03-01T20:45:43.447Z,24.90
2023-03-01T20:48:12.472Z,16.60
2023-03-01T20:50:49.772Z,12.50
2023-03-01T20:53:19.237Z,13.80
2023-03-01T20:55:48.880Z,17.70
2023-03-01T20:58:26.983Z,11.80
2023-03-01T21:00:57.465Z,13.10
2023-03-01T21:03:26.520Z,15.20
2023-03-01T21:05:59.112Z,14.10
2023-03-01T21:08:28.429Z,16.00
2023-03-01T21:10:58.610Z,11.00
2023-03-01T21:13:29.802Z,17.20
2023-03-01T21:16:04.763Z,14.30
2023-03-01T21:18:39.600Z,11.40
2023-03-01T21:21:11.522Z,16.60
2023-03-01T21:23:42.619Z,33.20
2023-03-01T21:26:14.558Z,8.60
2023-03-01T21:31:20.377Z,8.50
2023-03-01T21:33:53.181Z,14.60
2023-03-01T21:36:23.232Z,13.20
2023-03-01T21:38:52.348Z,11.70
2023-03-01T21:41:23.480Z,12.00
2023-03-01T21:43:52.900Z,8.70
2023-03-01T21:46:23.948Z,8.50
2023-03-01T21:48:55.343Z,14.60
2023-03-01T21:51:25.805Z,13.60
2023-03-01T21:53:59.818Z,11.10
2023-03-01T21:56:31.881Z,7.90
2023-03-01T22:01:30.826Z,10.80
2023-03-01T22:04:04.043Z,12.00
2023-03-01T22:06:44.068Z,17.20
2023-03-01T22:09:32.251Z,11.40
2023-03-01T22:12:05.097Z,11.20
2023-03-01T22:14:38.051Z,15.00
2023-03-01T22:17:09.278Z,6.80
2023-03-01T22:19:38.286Z,9.30
2023-03-01T22:22:08.314Z,13.20
2023-03-01T22:24:38.417Z,10.90
2023-03-01T22:27:07.144Z,10.00
2023-03-01T22:29:35.678Z,8.30
2023-03-01T22:32:05.035Z,8.30
2023-03-01T22:34:34.771Z,7.90
2023-03-01T22:37:04.167Z,11.70
2023-03-01T22:39:32.779Z,9.60
2023-03-01T22:42:01.897Z,11.70
2023-03-01T22:44:31.013Z,9.50
2023-03-01T22:46:59.315Z,15.70
2023-03-01T22:49:28.251Z,16.20
2023-03-01T22:52:01.795Z,12.20
2023-03-01T22:54:30.692Z,7.20
2023-03-01T22:57:04.249Z,11.20
2023-03-01T22:59:34.265Z,14.20
2023-03-01T23:02:02.879Z,10.40
2023-03-01T23:04:31.666Z,10.40
2023-03-01T23:07:00.102Z,13.30
2023-03-01T23:09:31.917Z,16.50
2023-03-01T23:12:01.658Z,17.00
2023-03-01T23:14:38.044Z,10.90
2023-03-01T23:17:08.678Z,12.20
2023-03-01T23:19:39.540Z,8.40
2023-03-01T23:24:38.231Z,18.20
2023-03-01T23:27:14.073Z,10.10
2023-03-01T23:29:44.292Z,15.50
2023-03-01T23:32:13.623Z,11.10
2023-03-01T23:34:43.967Z,15.30
2023-03-01T23:37:12.888Z,13.80
2023-03-01T23:39:43.329Z,12.70
2023-03-01T23:42:11.886Z,11.30
2023-03-01T23:44:45.823Z,16.50
2023-03-01T23:47:14.185Z,17.10
2023-03-01T23:49:47.737Z,14.50
2023-03-01T23:52:17.574Z,12.30
2023-03-01T23:54:47.156Z,8.40
2023-03-01T23:57:18.011Z,16.10
2023-03-01T23:59:47.203Z,19.00
